sensor_id;sensor_type;location;lat;lon;timestamp;P1;durP1;ratioP1;P2;durP2;ratioP2
6348;SDS011;3207;42.648;23.406;2022-11-15T00:01:31;55.67;;;28.47;;
6348;SDS011;3207;42.648;23.406;2022-11-15T00:03:58;49.63;;;27.97;;
6348;SDS011;3207;42.648;23.406;2022-11-15T00:06:25;43.73;;;28.10;;
6348;SDS011;3207;42.648;23.406;2022-11-15T00:08:51;47.17;;;27.43;;
6348;SDS011;3207;42.648;23.406;2022-11-15T00:11:18;45.80;;;27.43;;
6348;SDS011;3207;42.648;23.406;2022-11-15T00:13:45;53.13;;;30.23;;
6348;SDS011;3207;42.648;23.406;2022-11-15T00:16:13;53.90;;;29.97;;
6348;SDS011;3207;42.648;23.406;2022-11-15T00:18:40;53.33;;;28.17;;
6348;SDS011;3207;42.648;23.406;2022-11-15T00:21:07;46.57;;;26.83;;
6348;SDS011;3207;42.648;23.406;2022-11-15T00:23:36;49.07;;;26.73;;
6348;SDS011;3207;42.648;23.406;2022-11-15T00:26:03;52.70;;;27.97;;
6348;SDS011;3207;42.648;23.406;2022-11-15T00:28:30;50.27;;;29.07;;
6348;SDS011;3207;42.648;23.406;2022-11-15T00:30:59;48.83;;;27.80;;
6348;SDS011;3207;42.648;23.406;2022-11-15T00:33:29;51.97;;;28.37;;
6348;SDS011;3207;42.648;23.406;2022-11-15T00:35:59;48.47;;;28.10;;
6348;SDS011;3207;42.648;23.406;2022-11-15T00:38:29;48.50;;;27.73;;
6348;SDS011;3207;42.648;23.406;2022-11-15T00:40:57;45.50;;;26.83;;
6348;SDS011;3207;42.648;23.406;2022-11-15T00:43:23;50.07;;;28.17;;
6348;SDS011;3207;42.648;23.406;2022-11-15T00:45:50;54.47;;;28.03;;
6348;SDS011;3207;42.648;23.406;2022-11-15T00:48:17;51.63;;;28.40;;
6348;SDS011;3207;42.648;23.406;2022-11-15T00:50:45;51.37;;;27.23;;
6348;SDS011;3207;42.648;23.406;2022-11-15T00:53:12;49.33;;;26.43;;
6348;SDS011;3207;42.648;23.406;2022-11-15T00:55:39;47.40;;;27.30;;
6348;SDS011;3207;42.648;23.406;2022-11-15T00:58:05;48.13;;;26.67;;
6348;SDS011;3207;42.648;23.406;2022-11-15T01:00:32;43.23;;;23.87;;
6348;SDS011;3207;42.648;23.406;2022-11-15T01:02:59;48.87;;;25.83;;
6348;SDS011;3207;42.648;23.406;2022-11-15T01:05:26;49.17;;;27.93;;
6348;SDS011;3207;42.648;23.406;2022-11-15T01:07:55;49.63;;;25.97;;
6348;SDS011;3207;42.648;23.406;2022-11-15T01:10:22;51.47;;;27.10;;
6348;SDS011;3207;42.648;23.406;2022-11-15T01:12:51;47.57;;;25.70;;
6348;SDS011;3207;42.648;23.406;2022-11-15T01:15:18;51.60;;;28.80;;
6348;SDS011;3207;42.648;23.406;2022-11-15T01:17:44;51.70;;;27.23;;
6348;SDS011;3207;42.648;23.406;2022-11-15T01:20:11;49.13;;;28.40;;
6348;SDS011;3207;42.648;23.406;2022-11-15T01:22:38;50.57;;;27.93;;
6348;SDS011;3207;42.648;23.406;2022-11-15T01:25:07;50.33;;;28.27;;
6348;SDS011;3207;42.648;23.406;2022-11-15T01:27:33;48.17;;;29.37;;
6348;SDS011;3207;42.648;23.406;2022-11-15T01:30:00;49.37;;;27.70;;
6348;SDS011;3207;42.648;23.406;2022-11-15T01:32:27;45.30;;;25.83;;
6348;SDS011;3207;42.648;23.406;2022-11-15T01:34:54;50.97;;;27.63;;
6348;SDS011;3207;42.648;23.406;2022-11-15T01:37:21;43.03;;;25.03;;
6348;SDS011;3207;42.648;23.406;2022-11-15T01:39:47;45.67;;;25.17;;
6348;SDS011;3207;42.648;23.406;2022-11-15T01:42:15;44.07;;;25.10;;
6348;SDS011;3207;42.648;23.406;2022-11-15T01:44:43;44.80;;;24.60;;
6348;SDS011;3207;42.648;23.406;2022-11-15T01:47:13;40.97;;;23.97;;
6348;SDS011;3207;42.648;23.406;2022-11-15T01:49:45;45.80;;;24.63;;
6348;SDS011;3207;42.648;23.406;2022-11-15T01:52:18;46.13;;;25.00;;
6348;SDS011;3207;42.648;23.406;2022-11-15T01:54:47;43.33;;;22.80;;
6348;SDS011;3207;42.648;23.406;2022-11-15T01:57:18;38.50;;;23.13;;
6348;SDS011;3207;42.648;23.406;2022-11-15T01:59:45;34.37;;;21.07;;
6348;SDS011;3207;42.648;23.406;2022-11-15T02:02:13;37.97;;;21.13;;
6348;SDS011;3207;42.648;23.406;2022-11-15T02:04:43;41.67;;;23.47;;
6348;SDS011;3207;42.648;23.406;2022-11-15T02:07:12;40.93;;;23.00;;
6348;SDS011;3207;42.648;23.406;2022-11-15T02:09:42;36.13;;;21.93;;
6348;SDS011;3207;42.648;23.406;2022-11-15T02:12:10;40.67;;;24.60;;
6348;SDS011;3207;42.648;23.406;2022-11-15T02:14:42;42.17;;;23.53;;
6348;SDS011;3207;42.648;23.406;2022-11-15T02:17:16;41.63;;;22.97;;
6348;SDS011;3207;42.648;23.406;2022-11-15T02:22:51;48.17;;;24.87;;
6348;SDS011;3207;42.648;23.406;2022-11-15T02:25:36;42.53;;;23.50;;
6348;SDS011;3207;42.648;23.406;2022-11-15T02:28:25;43.03;;;23.23;;
6348;SDS011;3207;42.648;23.406;2022-11-15T02:31:03;46.20;;;24.20;;
6348;SDS011;3207;42.648;23.406;2022-11-15T02:33:38;41.73;;;23.37;;
6348;SDS011;3207;42.648;23.406;2022-11-15T02:36:13;50.87;;;25.07;;
6348;SDS011;3207;42.648;23.406;2022-11-15T02:38:46;50.53;;;25.10;;
6348;SDS011;3207;42.648;23.406;2022-11-15T02:41:20;50.60;;;26.73;;
6348;SDS011;3207;42.648;23.406;2022-11-15T02:43:54;54.43;;;27.60;;
6348;SDS011;3207;42.648;23.406;2022-11-15T02:46:29;47.40;;;24.70;;
6348;SDS011;3207;42.648;23.406;2022-11-15T02:49:18;45.93;;;24.63;;
6348;SDS011;3207;42.648;23.406;2022-11-15T02:51:46;56.63;;;26.33;;
6348;SDS011;3207;42.648;23.406;2022-11-15T02:54:22;55.73;;;26.63;;
6348;SDS011;3207;42.648;23.406;2022-11-15T02:56:51;53.70;;;26.50;;
6348;SDS011;3207;42.648;23.406;2022-11-15T02:59:27;49.23;;;25.20;;
6348;SDS011;3207;42.648;23.406;2022-11-15T03:02:08;51.83;;;26.07;;
6348;SDS011;3207;42.648;23.406;2022-11-15T03:04:44;47.00;;;24.80;;
6348;SDS011;3207;42.648;23.406;2022-11-15T03:07:19;52.23;;;26.23;;
6348;SDS011;3207;42.648;23.406;2022-11-15T03:09:56;53.70;;;27.53;;
6348;SDS011;3207;42.648;23.406;2022-11-15T03:12:33;54.13;;;25.07;;
6348;SDS011;3207;42.648;23.406;2022-11-15T03:15:08;48.10;;;24.07;;
6348;SDS011;3207;42.648;23.406;2022-11-15T03:17:46;49.40;;;24.90;;
6348;SDS011;3207;42.648;23.406;2022-11-15T03:20:17;46.77;;;25.47;;
6348;SDS011;3207;42.648;23.406;2022-11-15T03:22:46;49.07;;;24.90;;
6348;SDS011;3207;42.648;23.406;2022-11-15T03:25:16;48.13;;;24.77;;
6348;SDS011;3207;42.648;23.406;2022-11-15T03:27:46;46.83;;;26.17;;
6348;SDS011;3207;42.648;23.406;2022-11-15T03:30:17;47.90;;;24.30;;
6348;SDS011;3207;42.648;23.406;2022-11-15T03:32:46;43.17;;;22.47;;
6348;SDS011;3207;42.648;23.406;2022-11-15T03:35:17;43.07;;;23.73;;
6348;SDS011;3207;42.648;23.406;2022-11-15T03:37:48;49.70;;;24.73;;
6348;SDS011;3207;42.648;23.406;2022-11-15T03:40:19;50.07;;;24.97;;
6348;SDS011;3207;42.648;23.406;2022-11-15T03:42:53;46.03;;;24.10;;
6348;SDS011;3207;42.648;23.406;2022-11-15T03:45:27;53.07;;;24.33;;
6348;SDS011;3207;42.648;23.406;2022-11-15T03:47:59;50.37;;;25.47;;
6348;SDS011;3207;42.648;23.406;2022-11-15T03:50:31;48.27;;;25.20;;
6348;SDS011;3207;42.648;23.406;2022-11-15T03:52:58;49.83;;;25.90;;
6348;SDS011;3207;42.648;23.406;2022-11-15T03:55:25;42.97;;;22.93;;
6348;SDS011;3207;42.648;23.406;2022-11-15T03:57:52;48.07;;;25.53;;
6348;SDS011;3207;42.648;23.406;2022-11-15T04:00:22;45.17;;;24.57;;
6348;SDS011;3207;42.648;23.406;2022-11-15T04:02:49;47.93;;;25.47;;
6348;SDS011;3207;42.648;23.406;2022-11-15T04:05:17;48.03;;;25.53;;
6348;SDS011;3207;42.648;23.406;2022-11-15T04:07:44;51.70;;;26.17;;
6348;SDS011;3207;42.648;23.406;2022-11-15T04:10:11;45.27;;;24.73;;
6348;SDS011;3207;42.648;23.406;2022-11-15T04:12:38;47.63;;;23.93;;
6348;SDS011;3207;42.648;23.406;2022-11-15T04:15:09;47.10;;;23.80;;
6348;SDS011;3207;42.648;23.406;2022-11-15T04:17:38;49.43;;;24.37;;
6348;SDS011;3207;42.648;23.406;2022-11-15T04:20:08;42.20;;;24.20;;
6348;SDS011;3207;42.648;23.406;2022-11-15T04:22:56;47.90;;;24.40;;
6348;SDS011;3207;42.648;23.406;2022-11-15T04:25:41;49.60;;;25.93;;
6348;SDS011;3207;42.648;23.406;2022-11-15T04:28:09;47.67;;;25.40;;
6348;SDS011;3207;42.648;23.406;2022-11-15T04:30:36;47.50;;;23.80;;
6348;SDS011;3207;42.648;23.406;2022-11-15T04:33:04;48.67;;;24.10;;
6348;SDS011;3207;42.648;23.406;2022-11-15T04:35:31;51.03;;;26.10;;
6348;SDS011;3207;42.648;23.406;2022-11-15T04:37:59;55.30;;;25.33;;
6348;SDS011;3207;42.648;23.406;2022-11-15T04:40:25;54.57;;;27.37;;
6348;SDS011;3207;42.648;23.406;2022-11-15T04:42:52;52.30;;;26.60;;
6348;SDS011;3207;42.648;23.406;2022-11-15T04:45:19;55.83;;;26.40;;
6348;SDS011;3207;42.648;23.406;2022-11-15T04:47:46;48.57;;;25.30;;
6348;SDS011;3207;42.648;23.406;2022-11-15T04:50:13;50.57;;;24.57;;
6348;SDS011;3207;42.648;23.406;2022-11-15T04:52:40;55.03;;;26.37;;
6348;SDS011;3207;42.648;23.406;2022-11-15T04:55:09;51.40;;;26.63;;
6348;SDS011;3207;42.648;23.406;2022-11-15T04:57:37;50.17;;;24.53;;
6348;SDS011;3207;42.648;23.406;2022-11-15T05:00:05;48.57;;;24.17;;
6348;SDS011;3207;42.648;23.406;2022-11-15T05:02:33;44.57;;;22.63;;
6348;SDS011;3207;42.648;23.406;2022-11-15T05:05:18;35.73;;;20.40;;
6348;SDS011;3207;42.648;23.406;2022-11-15T05:07:45;30.83;;;18.63;;
6348;SDS011;3207;42.648;23.406;2022-11-15T05:10:13;26.30;;;16.60;;
6348;SDS011;3207;42.648;23.406;2022-11-15T05:12:40;23.63;;;15.07;;
6348;SDS011;3207;42.648;23.406;2022-11-15T05:15:07;22.83;;;15.13;;
6348;SDS011;3207;42.648;23.406;2022-11-15T05:17:34;23.30;;;16.17;;
6348;SDS011;3207;42.648;23.406;2022-11-15T05:20:01;20.93;;;15.10;;
6348;SDS011;3207;42.648;23.406;2022-11-15T05:22:28;24.10;;;16.03;;
6348;SDS011;3207;42.648;23.406;2022-11-15T05:24:54;26.43;;;18.10;;
6348;SDS011;3207;42.648;23.406;2022-11-15T05:27:22;31.13;;;19.30;;
6348;SDS011;3207;42.648;23.406;2022-11-15T05:29:49;28.20;;;17.63;;
6348;SDS011;3207;42.648;23.406;2022-11-15T05:32:16;25.30;;;17.57;;
6348;SDS011;3207;42.648;23.406;2022-11-15T05:34:44;27.50;;;16.43;;
6348;SDS011;3207;42.648;23.406;2022-11-15T05:37:11;30.27;;;18.87;;
6348;SDS011;3207;42.648;23.406;2022-11-15T05:39:38;27.40;;;18.20;;
6348;SDS011;3207;42.648;23.406;2022-11-15T05:42:05;24.43;;;16.67;;
6348;SDS011;3207;42.648;23.406;2022-11-15T05:44:37;30.73;;;19.80;;
6348;SDS011;3207;42.648;23.406;2022-11-15T05:47:08;30.33;;;18.30;;
6348;SDS011;3207;42.648;23.406;2022-11-15T05:49:38;31.43;;;19.33;;
6348;SDS011;3207;42.648;23.406;2022-11-15T05:52:07;28.97;;;17.27;;
6348;SDS011;3207;42.648;23.406;2022-11-15T05:54:37;30.00;;;18.67;;
6348;SDS011;3207;42.648;23.406;2022-11-15T05:57:05;30.53;;;19.53;;
6348;SDS011;3207;42.648;23.406;2022-11-15T05:59:32;30.73;;;19.37;;
6348;SDS011;3207;42.648;23.406;2022-11-15T06:02:01;30.17;;;19.97;;
6348;SDS011;3207;42.648;23.406;2022-11-15T06:04:28;28.53;;;18.70;;
6348;SDS011;3207;42.648;23.406;2022-11-15T06:06:54;29.40;;;19.27;;
6348;SDS011;3207;42.648;23.406;2022-11-15T06:09:21;32.50;;;20.13;;
6348;SDS011;3207;42.648;23.406;2022-11-15T06:11:48;27.97;;;18.10;;
6348;SDS011;3207;42.648;23.406;2022-11-15T06:14:15;26.23;;;17.90;;
6348;SDS011;3207;42.648;23.406;2022-11-15T06:16:41;28.93;;;18.43;;
6348;SDS011;3207;42.648;23.406;2022-11-15T06:19:10;26.33;;;18.00;;
6348;SDS011;3207;42.648;23.406;2022-11-15T06:21:36;26.13;;;16.33;;
6348;SDS011;3207;42.648;23.406;2022-11-15T06:24:04;26.33;;;15.73;;
6348;SDS011;3207;42.648;23.406;2022-11-15T06:26:31;23.93;;;15.27;;
6348;SDS011;3207;42.648;23.406;2022-11-15T06:28:58;21.93;;;14.47;;
6348;SDS011;3207;42.648;23.406;2022-11-15T06:31:25;21.60;;;14.63;;
6348;SDS011;3207;42.648;23.406;2022-11-15T06:33:52;25.67;;;17.77;;
6348;SDS011;3207;42.648;23.406;2022-11-15T06:36:20;23.13;;;15.17;;
6348;SDS011;3207;42.648;23.406;2022-11-15T06:38:47;23.40;;;16.37;;
6348;SDS011;3207;42.648;23.406;2022-11-15T06:41:14;24.63;;;16.10;;
6348;SDS011;3207;42.648;23.406;2022-11-15T06:43:41;21.97;;;15.57;;
6348;SDS011;3207;42.648;23.406;2022-11-15T06:46:08;24.87;;;15.47;;
6348;SDS011;3207;42.648;23.406;2022-11-15T06:48:35;22.77;;;15.70;;
6348;SDS011;3207;42.648;23.406;2022-11-15T06:51:03;22.27;;;14.53;;
6348;SDS011;3207;42.648;23.406;2022-11-15T06:53:32;20.57;;;14.47;;
6348;SDS011;3207;42.648;23.406;2022-11-15T06:55:59;21.80;;;15.47;;
6348;SDS011;3207;42.648;23.406;2022-11-15T06:58:26;20.23;;;14.37;;
6348;SDS011;3207;42.648;23.406;2022-11-15T07:00:57;19.73;;;14.13;;
6348;SDS011;3207;42.648;23.406;2022-11-15T07:03:24;18.90;;;13.83;;
6348;SDS011;3207;42.648;23.406;2022-11-15T07:05:52;20.57;;;13.80;;
6348;SDS011;3207;42.648;23.406;2022-11-15T07:08:20;21.17;;;14.87;;
6348;SDS011;3207;42.648;23.406;2022-11-15T07:10:49;19.03;;;13.30;;
6348;SDS011;3207;42.648;23.406;2022-11-15T07:13:15;18.93;;;12.47;;
6348;SDS011;3207;42.648;23.406;2022-11-15T07:15:42;17.30;;;12.67;;
6348;SDS011;3207;42.648;23.406;2022-11-15T07:18:09;15.80;;;12.13;;
6348;SDS011;3207;42.648;23.406;2022-11-15T07:20:36;16.70;;;12.90;;
6348;SDS011;3207;42.648;23.406;2022-11-15T07:23:03;17.47;;;12.17;;
6348;SDS011;3207;42.648;23.406;2022-11-15T07:25:31;15.27;;;12.43;;
6348;SDS011;3207;42.648;23.406;2022-11-15T07:27:59;14.03;;;11.17;;
6348;SDS011;3207;42.648;23.406;2022-11-15T07:30:26;19.73;;;13.37;;
6348;SDS011;3207;42.648;23.406;2022-11-15T07:32:54;29.37;;;19.07;;
6348;SDS011;3207;42.648;23.406;2022-11-15T07:35:21;23.00;;;16.77;;
6348;SDS011;3207;42.648;23.406;2022-11-15T07:37:55;21.47;;;15.27;;
6348;SDS011;3207;42.648;23.406;2022-11-15T07:40:22;18.00;;;14.00;;
6348;SDS011;3207;42.648;23.406;2022-11-15T07:42:50;21.67;;;14.93;;
6348;SDS011;3207;42.648;23.406;2022-11-15T07:45:22;19.70;;;14.07;;
6348;SDS011;3207;42.648;23.406;2022-11-15T07:47:51;21.53;;;14.23;;
6348;SDS011;3207;42.648;23.406;2022-11-15T07:50:19;23.13;;;15.67;;
6348;SDS011;3207;42.648;23.406;2022-11-15T07:52:46;27.83;;;19.07;;
6348;SDS011;3207;42.648;23.406;2022-11-15T07:55:12;27.33;;;18.00;;
6348;SDS011;3207;42.648;23.406;2022-11-15T07:57:39;28.07;;;16.90;;
6348;SDS011;3207;42.648;23.406;2022-11-15T08:00:07;27.33;;;18.13;;
6348;SDS011;3207;42.648;23.406;2022-11-15T08:02:35;27.67;;;17.57;;
6348;SDS011;3207;42.648;23.406;2022-11-15T08:05:02;29.10;;;18.17;;
6348;SDS011;3207;42.648;23.406;2022-11-15T08:07:30;33.80;;;20.43;;
6348;SDS011;3207;42.648;23.406;2022-11-15T08:09:57;27.60;;;17.63;;
6348;SDS011;3207;42.648;23.406;2022-11-15T08:12:26;25.13;;;17.40;;
6348;SDS011;3207;42.648;23.406;2022-11-15T08:14:53;25.57;;;16.70;;
6348;SDS011;3207;42.648;23.406;2022-11-15T08:17:20;30.37;;;19.30;;
6348;SDS011;3207;42.648;23.406;2022-11-15T08:19:48;32.77;;;19.67;;
6348;SDS011;3207;42.648;23.406;2022-11-15T08:22:15;31.87;;;18.30;;
6348;SDS011;3207;42.648;23.406;2022-11-15T08:24:49;33.90;;;18.97;;
6348;SDS011;3207;42.648;23.406;2022-11-15T08:27:16;31.07;;;19.43;;
6348;SDS011;3207;42.648;23.406;2022-11-15T08:29:43;28.73;;;19.17;;
6348;SDS011;3207;42.648;23.406;2022-11-15T08:32:10;27.23;;;18.73;;
6348;SDS011;3207;42.648;23.406;2022-11-15T08:34:37;30.97;;;18.53;;
6348;SDS011;3207;42.648;23.406;2022-11-15T08:37:06;32.30;;;19.70;;
6348;SDS011;3207;42.648;23.406;2022-11-15T08:39:33;27.60;;;16.93;;
6348;SDS011;3207;42.648;23.406;2022-11-15T08:41:59;25.20;;;16.40;;
6348;SDS011;3207;42.648;23.406;2022-11-15T08:44:26;21.43;;;13.90;;
6348;SDS011;3207;42.648;23.406;2022-11-15T08:46:53;22.63;;;15.60;;
6348;SDS011;3207;42.648;23.406;2022-11-15T08:49:20;24.53;;;15.33;;
6348;SDS011;3207;42.648;23.406;2022-11-15T08:51:46;23.40;;;16.17;;
6348;SDS011;3207;42.648;23.406;2022-11-15T08:54:14;23.20;;;14.97;;
6348;SDS011;3207;42.648;23.406;2022-11-15T08:56:41;23.47;;;15.20;;
6348;SDS011;3207;42.648;23.406;2022-11-15T08:59:08;24.93;;;16.33;;
6348;SDS011;3207;42.648;23.406;2022-11-15T09:01:35;23.57;;;16.20;;
6348;SDS011;3207;42.648;23.406;2022-11-15T09:04:02;29.07;;;18.03;;
6348;SDS011;3207;42.648;23.406;2022-11-15T09:06:29;27.53;;;17.53;;
6348;SDS011;3207;42.648;23.406;2022-11-15T09:08:56;27.60;;;17.87;;
6348;SDS011;3207;42.648;23.406;2022-11-15T09:11:28;29.20;;;19.17;;
6348;SDS011;3207;42.648;23.406;2022-11-15T09:13:55;25.67;;;18.37;;
6348;SDS011;3207;42.648;23.406;2022-11-15T09:16:22;28.13;;;18.27;;
6348;SDS011;3207;42.648;23.406;2022-11-15T09:18:49;29.83;;;19.93;;
6348;SDS011;3207;42.648;23.406;2022-11-15T09:21:16;26.80;;;18.03;;
6348;SDS011;3207;42.648;23.406;2022-11-15T09:23:42;26.60;;;18.90;;
6348;SDS011;3207;42.648;23.406;2022-11-15T09:26:09;33.17;;;20.70;;
6348;SDS011;3207;42.648;23.406;2022-11-15T09:28:37;30.30;;;19.23;;
6348;SDS011;3207;42.648;23.406;2022-11-15T09:31:07;33.93;;;19.03;;
6348;SDS011;3207;42.648;23.406;2022-11-15T09:33:34;32.27;;;18.83;;
6348;SDS011;3207;42.648;23.406;2022-11-15T09:36:01;29.00;;;19.23;;
6348;SDS011;3207;42.648;23.406;2022-11-15T09:38:29;33.50;;;22.07;;
6348;SDS011;3207;42.648;23.406;2022-11-15T09:40:59;31.73;;;19.93;;
6348;SDS011;3207;42.648;23.406;2022-11-15T09:43:53;33.57;;;21.63;;
6348;SDS011;3207;42.648;23.406;2022-11-15T09:46:33;32.90;;;20.00;;
6348;SDS011;3207;42.648;23.406;2022-11-15T09:49:08;29.77;;;19.57;;
6348;SDS011;3207;42.648;23.406;2022-11-15T09:51:40;30.47;;;19.53;;
6348;SDS011;3207;42.648;23.406;2022-11-15T09:54:17;28.77;;;19.88;;
6348;SDS011;3207;42.648;23.406;2022-11-15T09:56:52;30.30;;;21.10;;
6348;SDS011;3207;42.648;23.406;2022-11-15T09:59:27;32.33;;;21.73;;
6348;SDS011;3207;42.648;23.406;2022-11-15T10:02:09;32.17;;;20.35;;
6348;SDS011;3207;42.648;23.406;2022-11-15T10:04:47;37.60;;;22.60;;
6348;SDS011;3207;42.648;23.406;2022-11-15T10:07:14;36.43;;;23.33;;
6348;SDS011;3207;42.648;23.406;2022-11-15T10:09:46;33.67;;;22.47;;
6348;SDS011;3207;42.648;23.406;2022-11-15T10:12:16;27.97;;;20.17;;
6348;SDS011;3207;42.648;23.406;2022-11-15T10:14:46;31.10;;;21.17;;
6348;SDS011;3207;42.648;23.406;2022-11-15T10:17:21;26.23;;;18.40;;
6348;SDS011;3207;42.648;23.406;2022-11-15T10:20:10;22.53;;;17.77;;
6348;SDS011;3207;42.648;23.406;2022-11-15T10:22:44;27.48;;;18.98;;
6348;SDS011;3207;42.648;23.406;2022-11-15T10:25:19;26.33;;;18.83;;
6348;SDS011;3207;42.648;23.406;2022-11-15T10:27:54;21.37;;;16.63;;
6348;SDS011;3207;42.648;23.406;2022-11-15T10:30:29;23.57;;;19.10;;
6348;SDS011;3207;42.648;23.406;2022-11-15T10:33:14;20.70;;;17.13;;
6348;SDS011;3207;42.648;23.406;2022-11-15T10:35:46;22.92;;;19.17;;
6348;SDS011;3207;42.648;23.406;2022-11-15T10:38:13;21.23;;;16.67;;
6348;SDS011;3207;42.648;23.406;2022-11-15T10:40:40;25.27;;;20.13;;
6348;SDS011;3207;42.648;23.406;2022-11-15T10:43:13;20.45;;;16.17;;
6348;SDS011;3207;42.648;23.406;2022-11-15T10:45:43;20.73;;;16.45;;
6348;SDS011;3207;42.648;23.406;2022-11-15T10:48:23;19.45;;;17.00;;
6348;SDS011;3207;42.648;23.406;2022-11-15T10:50:51;20.23;;;16.60;;
6348;SDS011;3207;42.648;23.406;2022-11-15T10:53:21;19.55;;;15.73;;
6348;SDS011;3207;42.648;23.406;2022-11-15T10:55:52;19.73;;;16.08;;
6348;SDS011;3207;42.648;23.406;2022-11-15T10:58:26;20.35;;;16.65;;
6348;SDS011;3207;42.648;23.406;2022-11-15T11:01:09;18.45;;;15.32;;
6348;SDS011;3207;42.648;23.406;2022-11-15T11:03:38;19.52;;;15.43;;
6348;SDS011;3207;42.648;23.406;2022-11-15T11:06:07;22.70;;;16.02;;
6348;SDS011;3207;42.648;23.406;2022-11-15T11:08:36;18.60;;;15.98;;
6348;SDS011;3207;42.648;23.406;2022-11-15T11:11:04;22.40;;;16.17;;
6348;SDS011;3207;42.648;23.406;2022-11-15T11:13:33;22.90;;;16.93;;
6348;SDS011;3207;42.648;23.406;2022-11-15T11:16:14;21.57;;;15.93;;
6348;SDS011;3207;42.648;23.406;2022-11-15T11:18:49;24.13;;;17.53;;
6348;SDS011;3207;42.648;23.406;2022-11-15T11:21:25;23.57;;;17.83;;
6348;SDS011;3207;42.648;23.406;2022-11-15T11:24:11;21.02;;;15.57;;
6348;SDS011;3207;42.648;23.406;2022-11-15T11:26:46;21.30;;;16.67;;
6348;SDS011;3207;42.648;23.406;2022-11-15T11:29:28;19.93;;;15.07;;
6348;SDS011;3207;42.648;23.406;2022-11-15T11:32:06;19.02;;;15.40;;
6348;SDS011;3207;42.648;23.406;2022-11-15T11:34:50;21.67;;;17.67;;
6348;SDS011;3207;42.648;23.406;2022-11-15T11:37:26;20.97;;;16.63;;
6348;SDS011;3207;42.648;23.406;2022-11-15T11:40:01;20.25;;;15.10;;
6348;SDS011;3207;42.648;23.406;2022-11-15T11:42:41;20.48;;;15.73;;
6348;SDS011;3207;42.648;23.406;2022-11-15T11:45:20;19.33;;;15.75;;
6348;SDS011;3207;42.648;23.406;2022-11-15T11:47:57;18.70;;;15.07;;
6348;SDS011;3207;42.648;23.406;2022-11-15T11:50:40;23.80;;;16.83;;
6348;SDS011;3207;42.648;23.406;2022-11-15T11:53:10;21.38;;;16.20;;
6348;SDS011;3207;42.648;23.406;2022-11-15T11:55:41;22.08;;;16.38;;
6348;SDS011;3207;42.648;23.406;2022-11-15T11:58:12;22.55;;;17.65;;
6348;SDS011;3207;42.648;23.406;2022-11-15T12:00:45;22.58;;;16.83;;
6348;SDS011;3207;42.648;23.406;2022-11-15T12:03:21;21.58;;;16.30;;
6348;SDS011;3207;42.648;23.406;2022-11-15T12:05:55;20.65;;;16.30;;
6348;SDS011;3207;42.648;23.406;2022-11-15T12:08:30;21.50;;;17.05;;
6348;SDS011;3207;42.648;23.406;2022-11-15T12:11:07;24.90;;;17.38;;
6348;SDS011;3207;42.648;23.406;2022-11-15T12:13:39;19.65;;;16.08;;
6348;SDS011;3207;42.648;23.406;2022-11-15T12:16:08;19.95;;;15.68;;
6348;SDS011;3207;42.648;23.406;2022-11-15T12:18:42;20.35;;;16.75;;
6348;SDS011;3207;42.648;23.406;2022-11-15T12:21:13;20.27;;;16.55;;
6348;SDS011;3207;42.648;23.406;2022-11-15T12:23:48;18.50;;;15.93;;
6348;SDS011;3207;42.648;23.406;2022-11-15T12:26:19;21.95;;;17.63;;
6348;SDS011;3207;42.648;23.406;2022-11-15T12:28:51;23.65;;;16.85;;
6348;SDS011;3207;42.648;23.406;2022-11-15T12:31:23;26.35;;;18.13;;
6348;SDS011;3207;42.648;23.406;2022-11-15T12:33:58;25.08;;;17.85;;
6348;SDS011;3207;42.648;23.406;2022-11-15T12:36:34;22.73;;;17.20;;
6348;SDS011;3207;42.648;23.406;2022-11-15T12:39:08;23.52;;;16.92;;
6348;SDS011;3207;42.648;23.406;2022-11-15T12:41:36;28.52;;;18.23;;
6348;SDS011;3207;42.648;23.406;2022-11-15T12:44:04;20.83;;;16.50;;
6348;SDS011;3207;42.648;23.406;2022-11-15T12:49:43;22.08;;;16.63;;
6348;SDS011;3207;42.648;23.406;2022-11-15T12:52:12;24.10;;;18.30;;
6348;SDS011;3207;42.648;23.406;2022-11-15T12:57:45;20.02;;;17.23;;
6348;SDS011;3207;42.648;23.406;2022-11-15T13:03:19;20.67;;;15.85;;
6348;SDS011;3207;42.648;23.406;2022-11-15T13:05:58;22.38;;;17.20;;
6348;SDS011;3207;42.648;23.406;2022-11-15T13:08:37;18.70;;;15.60;;
6348;SDS011;3207;42.648;23.406;2022-11-15T13:17:28;21.83;;;17.02;;
6348;SDS011;3207;42.648;23.406;2022-11-15T13:20:01;22.05;;;16.58;;
6348;SDS011;3207;42.648;23.406;2022-11-15T13:22:44;20.70;;;15.30;;
6348;SDS011;3207;42.648;23.406;2022-11-15T13:28:21;22.35;;;18.02;;
6348;SDS011;3207;42.648;23.406;2022-11-15T13:30:53;24.08;;;18.73;;
6348;SDS011;3207;42.648;23.406;2022-11-15T13:33:23;22.27;;;17.08;;
6348;SDS011;3207;42.648;23.406;2022-11-15T13:35:54;20.77;;;17.48;;
6348;SDS011;3207;42.648;23.406;2022-11-15T13:38:28;24.15;;;18.48;;
6348;SDS011;3207;42.648;23.406;2022-11-15T13:40:56;23.27;;;17.10;;
6348;SDS011;3207;42.648;23.406;2022-11-15T13:43:29;23.60;;;16.92;;
6348;SDS011;3207;42.648;23.406;2022-11-15T13:46:06;24.60;;;17.83;;
6348;SDS011;3207;42.648;23.406;2022-11-15T13:48:37;26.38;;;18.58;;
6348;SDS011;3207;42.648;23.406;2022-11-15T13:51:09;24.25;;;17.35;;
6348;SDS011;3207;42.648;23.406;2022-11-15T13:53:44;32.55;;;20.13;;
6348;SDS011;3207;42.648;23.406;2022-11-15T13:56:13;31.23;;;20.52;;
6348;SDS011;3207;42.648;23.406;2022-11-15T13:58:41;33.63;;;21.02;;
6348;SDS011;3207;42.648;23.406;2022-11-15T14:01:13;26.30;;;18.90;;
6348;SDS011;3207;42.648;23.406;2022-11-15T14:03:46;29.88;;;20.77;;
6348;SDS011;3207;42.648;23.406;2022-11-15T14:06:17;26.67;;;19.08;;
6348;SDS011;3207;42.648;23.406;2022-11-15T14:08:59;25.17;;;18.95;;
6348;SDS011;3207;42.648;23.406;2022-11-15T14:11:49;22.73;;;18.88;;
6348;SDS011;3207;42.648;23.406;2022-11-15T14:14:19;24.70;;;17.73;;
6348;SDS011;3207;42.648;23.406;2022-11-15T14:16:50;22.05;;;18.10;;
6348;SDS011;3207;42.648;23.406;2022-11-15T14:19:35;24.13;;;19.67;;
6348;SDS011;3207;42.648;23.406;2022-11-15T14:22:10;26.23;;;18.92;;
6348;SDS011;3207;42.648;23.406;2022-11-15T14:24:41;29.13;;;19.23;;
6348;SDS011;3207;42.648;23.406;2022-11-15T14:27:20;25.20;;;20.02;;
6348;SDS011;3207;42.648;23.406;2022-11-15T14:29:49;24.00;;;19.15;;
6348;SDS011;3207;42.648;23.406;2022-11-15T14:32:17;27.10;;;20.83;;
6348;SDS011;3207;42.648;23.406;2022-11-15T14:34:46;24.65;;;19.95;;
6348;SDS011;3207;42.648;23.406;2022-11-15T14:37:18;23.38;;;18.73;;
6348;SDS011;3207;42.648;23.406;2022-11-15T14:39:49;23.33;;;19.05;;
6348;SDS011;3207;42.648;23.406;2022-11-15T14:42:17;34.25;;;19.90;;
6348;SDS011;3207;42.648;23.406;2022-11-15T14:44:45;25.90;;;19.73;;
6348;SDS011;3207;42.648;23.406;2022-11-15T14:47:12;28.65;;;21.02;;
6348;SDS011;3207;42.648;23.406;2022-11-15T14:49:39;30.13;;;21.67;;
6348;SDS011;3207;42.648;23.406;2022-11-15T14:52:19;25.92;;;20.35;;
6348;SDS011;3207;42.648;23.406;2022-11-15T14:54:51;27.48;;;21.10;;
6348;SDS011;3207;42.648;23.406;2022-11-15T14:57:18;28.65;;;21.20;;
6348;SDS011;3207;42.648;23.406;2022-11-15T14:59:45;33.58;;;20.90;;
6348;SDS011;3207;42.648;23.406;2022-11-15T15:02:14;24.50;;;19.48;;
6348;SDS011;3207;42.648;23.406;2022-11-15T15:04:48;29.92;;;19.88;;
6348;SDS011;3207;42.648;23.406;2022-11-15T15:07:15;33.28;;;20.30;;
6348;SDS011;3207;42.648;23.406;2022-11-15T15:09:43;33.25;;;22.42;;
6348;SDS011;3207;42.648;23.406;2022-11-15T15:12:14;32.25;;;24.05;;
6348;SDS011;3207;42.648;23.406;2022-11-15T15:14:43;34.75;;;23.40;;